createdAt,value
2022-12-23T00:03:39.621Z,95.36
2022-12-23T00:18:43.053Z,95.37
2022-12-23T00:33:47.133Z,95.38
2022-12-23T00:49:07.509Z,95.41
2022-12-23T01:04:32.168Z,95.57
2022-12-23T01:19:34.917Z,95.44
2022-12-23T01:34:37.746Z,95.61
2022-12-23T01:49:41.269Z,95.57
2022-12-23T02:04:43.848Z,95.63
2022-12-23T02:19:51.689Z,95.62
2022-12-23T02:35:01.092Z,95.66
2022-12-23T02:50:26.547Z,95.62
2022-12-23T03:05:34.068Z,95.49
2022-12-23T03:21:05.150Z,95.48
2022-12-23T03:36:15.949Z,95.46
2022-12-23T03:51:22.898Z,95.47
2022-12-23T04:06:31.345Z,95.62
2022-12-23T04:21:33.287Z,95.44
2022-12-23T04:36:35.313Z,95.24
2022-12-23T04:51:37.291Z,94.97
2022-12-23T05:06:39.307Z,94.67
2022-12-23T05:21:41.231Z,94.48
2022-12-23T05:36:43.149Z,94.86
2022-12-23T05:51:45.070Z,95.38
2022-12-23T06:06:47.058Z,95.56
2022-12-23T06:21:48.979Z,95.43
2022-12-23T06:36:50.987Z,95.03
2022-12-23T06:51:52.929Z,95.22
2022-12-23T07:06:54.927Z,95.06
2022-12-23T07:21:57.047Z,94.99
2022-12-23T07:36:59.066Z,94.66
2022-12-23T07:52:01.024Z,94.65
2022-12-23T08:07:02.985Z,94.84
2022-12-23T08:22:04.947Z,95.06
2022-12-23T08:37:07.267Z,94.94
2022-12-23T08:52:09.228Z,94.81
2022-12-23T09:07:11.184Z,94.72
2022-12-23T09:22:13.943Z,94.80
2022-12-23T09:37:17.113Z,94.63
2022-12-23T09:52:43.787Z,94.84
2022-12-23T10:08:13.208Z,94.78
2022-12-23T10:23:28.659Z,94.62
2022-12-23T10:38:33.409Z,94.46
2022-12-23T10:53:47.071Z,94.58
2022-12-23T11:08:51.188Z,94.51
2022-12-23T11:24:16.690Z,94.49
2022-12-23T11:39:29.167Z,94.52
2022-12-23T11:54:31.811Z,94.47
2022-12-23T12:09:35.089Z,94.43
2022-12-23T12:24:45.125Z,94.52
2022-12-23T12:39:55.242Z,94.68
2022-12-23T12:55:04.209Z,94.62
2022-12-23T13:10:06.125Z,94.54
2022-12-23T13:25:17.850Z,94.45
2022-12-23T13:40:28.954Z,94.42
2022-12-23T13:55:49.811Z,94.35
2022-12-23T14:10:57.855Z,94.42
2022-12-23T14:26:24.307Z,94.23
2022-12-23T14:41:43.718Z,94.11
2022-12-23T14:57:04.596Z,94.29
2022-12-23T15:12:16.367Z,94.34
2022-12-23T15:27:29.459Z,94.32
2022-12-23T15:42:32.230Z,94.46
2022-12-23T15:57:34.430Z,94.57
2022-12-23T16:12:37.295Z,94.39
2022-12-23T16:27:44.168Z,94.76
2022-12-23T16:42:46.150Z,94.10
2022-12-23T16:57:48.109Z,94.38
2022-12-23T17:12:51.140Z,94.48
2022-12-23T17:27:53.949Z,94.23
2022-12-23T17:42:55.966Z,94.48
2022-12-23T17:57:57.987Z,94.38
2022-12-23T18:13:02.902Z,94.51
2022-12-23T18:28:05.338Z,94.53
2022-12-23T18:43:16.227Z,94.54
2022-12-23T18:58:18.586Z,94.56
2022-12-23T19:13:20.870Z,94.54
2022-12-23T19:28:23.287Z,94.41
2022-12-23T19:43:25.255Z,94.59
2022-12-23T19:58:28.976Z,94.61
2022-12-23T20:13:31.068Z,94.45
2022-12-23T20:28:33.887Z,94.70
2022-12-23T20:43:36.417Z,94.64
2022-12-23T20:58:57.682Z,94.78
2022-12-23T21:14:06.883Z,94.80
2022-12-23T21:29:10.747Z,94.89
2022-12-23T21:44:16.268Z,94.45
2022-12-23T21:59:18.269Z,94.66
2022-12-23T22:14:20.248Z,94.74
2022-12-23T22:29:22.205Z,94.65
2022-12-23T22:44:24.257Z,94.55
2022-12-23T22:59:26.605Z,94.29
2022-12-23T23:14:28.607Z,94.39
2022-12-23T23:29:30.692Z,94.31
2022-12-23T23:44:32.628Z,94.40
2022-12-23T23:59:34.547Z,94.39
